sensor_id;sensor_type;location;lat;lon;timestamp;P1;durP1;ratioP1;P2;durP2;ratioP2
58972;SDS011;44750;52.040;7.472;2024-03-23T05:00:57;21.90;;;7.30;;
58972;SDS011;44750;52.040;7.472;2024-03-23T05:05:58;12.65;;;6.03;;
58972;SDS011;44750;52.040;7.472;2024-03-23T05:10:58;30.85;;;8.00;;
58972;SDS011;44750;52.040;7.472;2024-03-23T05:15:58;20.63;;;9.43;;
58972;SDS011;44750;52.040;7.472;2024-03-23T05:20:58;26.50;;;11.05;;
58972;SDS011;44750;52.040;7.472;2024-03-23T05:25:59;28.25;;;10.73;;
58972;SDS011;44750;52.040;7.472;2024-03-23T05:30:59;22.05;;;10.80;;
58972;SDS011;44750;52.040;7.472;2024-03-23T05:36:00;31.75;;;12.35;;
58972;SDS011;44750;52.040;7.472;2024-03-23T05:41:01;31.50;;;11.98;;
58972;SDS011;44750;52.040;7.472;2024-03-23T05:46:02;26.77;;;11.83;;
58972;SDS011;44750;52.040;7.472;2024-03-23T05:51:02;25.80;;;13.38;;
58972;SDS011;44750;52.040;7.472;2024-03-23T05:56:03;22.40;;;11.38;;
58972;SDS011;44750;52.040;7.472;2024-03-23T06:01:03;27.02;;;11.05;;
58972;SDS011;44750;52.040;7.472;2024-03-23T06:06:04;23.40;;;11.73;;
58972;SDS011;44750;52.040;7.472;2024-03-23T06:11:04;25.05;;;10.73;;
58972;SDS011;44750;52.040;7.472;2024-03-23T06:16:05;24.23;;;10.77;;
58972;SDS011;44750;52.040;7.472;2024-03-23T06:21:05;30.02;;;12.75;;
58972;SDS011;44750;52.040;7.472;2024-03-23T06:26:13;21.25;;;12.15;;
58972;SDS011;44750;52.040;7.472;2024-03-23T06:31:13;21.93;;;11.57;;
58972;SDS011;44750;52.040;7.472;2024-03-23T06:36:13;29.83;;;12.17;;
58972;SDS011;44750;52.040;7.472;2024-03-23T06:41:14;18.05;;;9.43;;
58972;SDS011;44750;52.040;7.472;2024-03-23T06:46:14;24.98;;;11.05;;
58972;SDS011;44750;52.040;7.472;2024-03-23T06:51:15;23.60;;;11.50;;
58972;SDS011;44750;52.040;7.472;2024-03-23T06:56:15;18.30;;;9.35;;
58972;SDS011;44750;52.040;7.472;2024-03-23T07:01:15;20.35;;;9.25;;
58972;SDS011;44750;52.040;7.472;2024-03-23T07:06:15;18.77;;;8.90;;
58972;SDS011;44750;52.040;7.472;2024-03-23T07:11:21;20.23;;;8.77;;
58972;SDS011;44750;52.040;7.472;2024-03-23T07:16:22;15.52;;;6.93;;
58972;SDS011;44750;52.040;7.472;2024-03-23T07:21:23;18.58;;;6.70;;
58972;SDS011;44750;52.040;7.472;2024-03-23T15:17:24;6.13;;;1.67;;
58972;SDS011;44750;52.040;7.472;2024-03-23T15:22:25;1.65;;;0.80;;
58972;SDS011;44750;52.040;7.472;2024-03-23T15:27:25;1.70;;;0.77;;
58972;SDS011;44750;52.040;7.472;2024-03-23T15:32:25;1.80;;;1.00;;
58972;SDS011;44750;52.040;7.472;2024-03-23T15:37:25;0.68;;;0.60;;
58972;SDS011;44750;52.040;7.472;2024-03-23T15:42:25;1.33;;;0.90;;
58972;SDS011;44750;52.040;7.472;2024-03-23T15:47:26;2.78;;;0.90;;
58972;SDS011;44750;52.040;7.472;2024-03-23T15:52:26;2.25;;;1.02;;
58972;SDS011;44750;52.040;7.472;2024-03-23T15:57:26;2.03;;;1.00;;
58972;SDS011;44750;52.040;7.472;2024-03-23T16:02:26;3.95;;;1.65;;
58972;SDS011;44750;52.040;7.472;2024-03-23T16:07:26;5.20;;;1.27;;
58972;SDS011;44750;52.040;7.472;2024-03-23T16:12:27;3.45;;;1.30;;
58972;SDS011;44750;52.040;7.472;2024-03-23T16:17:27;6.22;;;1.10;;
58972;SDS011;44750;52.040;7.472;2024-03-23T16:22:27;2.72;;;1.13;;
58972;SDS011;44750;52.040;7.472;2024-03-23T16:27:27;2.97;;;1.40;;
58972;SDS011;44750;52.040;7.472;2024-03-23T16:32:28;3.40;;;1.45;;
58972;SDS011;44750;52.040;7.472;2024-03-23T16:37:28;1.85;;;1.08;;
58972;SDS011;44750;52.040;7.472;2024-03-23T16:42:28;6.20;;;1.90;;
58972;SDS011;44750;52.040;7.472;2024-03-23T16:47:28;2.58;;;1.20;;
58972;SDS011;44750;52.040;7.472;2024-03-23T16:52:28;4.05;;;1.85;;
58972;SDS011;44750;52.040;7.472;2024-03-23T16:57:29;2.72;;;1.38;;
58972;SDS011;44750;52.040;7.472;2024-03-23T17:02:29;3.65;;;1.40;;
58972;SDS011;44750;52.040;7.472;2024-03-23T17:07:29;4.65;;;1.60;;
58972;SDS011;44750;52.040;7.472;2024-03-23T17:12:31;2.85;;;1.10;;
58972;SDS011;44750;52.040;7.472;2024-03-23T17:17:31;4.53;;;1.70;;
58972;SDS011;44750;52.040;7.472;2024-03-23T17:22:32;3.67;;;1.27;;
58972;SDS011;44750;52.040;7.472;2024-03-23T17:27:32;2.40;;;1.27;;
58972;SDS011;44750;52.040;7.472;2024-03-23T17:32:32;2.47;;;1.30;;
58972;SDS011;44750;52.040;7.472;2024-03-23T17:37:32;8.38;;;1.73;;
58972;SDS011;44750;52.040;7.472;2024-03-23T17:42:33;2.92;;;1.35;;
58972;SDS011;44750;52.040;7.472;2024-03-23T17:47:35;2.00;;;1.20;;
58972;SDS011;44750;52.040;7.472;2024-03-23T17:52:36;3.10;;;1.58;;
58972;SDS011;44750;52.040;7.472;2024-03-23T17:57:36;2.25;;;1.25;;
58972;SDS011;44750;52.040;7.472;2024-03-23T18:02:37;3.30;;;1.23;;
58972;SDS011;44750;52.040;7.472;2024-03-23T18:07:38;5.18;;;1.35;;
58972;SDS011;44750;52.040;7.472;2024-03-23T18:12:38;3.00;;;1.35;;
58972;SDS011;44750;52.040;7.472;2024-03-23T18:17:38;3.53;;;2.07;;
58972;SDS011;44750;52.040;7.472;2024-03-23T18:22:38;5.22;;;2.85;;
58972;SDS011;44750;52.040;7.472;2024-03-23T18:27:39;7.00;;;3.00;;
58972;SDS011;44750;52.040;7.472;2024-03-23T18:32:39;5.38;;;3.15;;
58972;SDS011;44750;52.040;7.472;2024-03-23T18:37:39;2.95;;;1.60;;
58972;SDS011;44750;52.040;7.472;2024-03-23T18:42:39;3.63;;;2.40;;
58972;SDS011;44750;52.040;7.472;2024-03-23T18:47:39;1.95;;;1.20;;
58972;SDS011;44750;52.040;7.472;2024-03-23T18:52:40;3.10;;;1.67;;
58972;SDS011;44750;52.040;7.472;2024-03-23T18:57:40;10.25;;;1.55;;
58972;SDS011;44750;52.040;7.472;2024-03-23T19:02:40;3.58;;;1.85;;
58972;SDS011;44750;52.040;7.472;2024-03-23T19:07:40;2.22;;;1.50;;
58972;SDS011;44750;52.040;7.472;2024-03-23T19:12:41;6.00;;;2.30;;
58972;SDS011;44750;52.040;7.472;2024-03-23T19:17:41;3.67;;;1.80;;
58972;SDS011;44750;52.040;7.472;2024-03-23T19:22:41;3.58;;;1.70;;
58972;SDS011;44750;52.040;7.472;2024-03-23T19:27:42;5.47;;;1.90;;
58972;SDS011;44750;52.040;7.472;2024-03-23T19:32:42;7.00;;;2.40;;
58972;SDS011;44750;52.040;7.472;2024-03-23T19:37:42;5.00;;;3.00;;
58972;SDS011;44750;52.040;7.472;2024-03-23T19:42:42;7.23;;;3.60;;
58972;SDS011;44750;52.040;7.472;2024-03-23T19:47:43;8.30;;;3.20;;
58972;SDS011;44750;52.040;7.472;2024-03-23T19:52:43;5.22;;;3.55;;
58972;SDS011;44750;52.040;7.472;2024-03-23T19:57:43;5.13;;;2.40;;
58972;SDS011;44750;52.040;7.472;2024-03-23T20:02:44;3.22;;;1.88;;
58972;SDS011;44750;52.040;7.472;2024-03-23T20:07:45;4.07;;;1.98;;
58972;SDS011;44750;52.040;7.472;2024-03-23T20:12:45;4.88;;;3.45;;
58972;SDS011;44750;52.040;7.472;2024-03-23T20:17:45;3.85;;;2.40;;
58972;SDS011;44750;52.040;7.472;2024-03-23T20:22:46;5.57;;;2.75;;
58972;SDS011;44750;52.040;7.472;2024-03-23T20:27:46;3.92;;;2.10;;
58972;SDS011;44750;52.040;7.472;2024-03-23T20:32:46;2.80;;;1.98;;
58972;SDS011;44750;52.040;7.472;2024-03-23T20:37:46;3.30;;;2.97;;
58972;SDS011;44750;52.040;7.472;2024-03-23T20:42:47;3.38;;;2.70;;
58972;SDS011;44750;52.040;7.472;2024-03-23T20:47:47;3.47;;;2.92;;
58972;SDS011;44750;52.040;7.472;2024-03-23T20:52:47;1.90;;;1.70;;
58972;SDS011;44750;52.040;7.472;2024-03-23T20:57:47;4.38;;;2.80;;
58972;SDS011;44750;52.040;7.472;2024-03-23T21:02:47;3.27;;;2.97;;
58972;SDS011;44750;52.040;7.472;2024-03-23T21:07:48;5.22;;;2.95;;
58972;SDS011;44750;52.040;7.472;2024-03-23T21:12:48;1.60;;;1.50;;
58972;SDS011;44750;52.040;7.472;2024-03-23T21:17:48;2.20;;;1.40;;
58972;SDS011;44750;52.040;7.472;2024-03-23T21:22:51;2.53;;;1.55;;
58972;SDS011;44750;52.040;7.472;2024-03-23T21:27:52;2.63;;;1.30;;
58972;SDS011;44750;52.040;7.472;2024-03-23T21:32:52;1.48;;;1.13;;
58972;SDS011;44750;52.040;7.472;2024-03-23T21:37:52;3.70;;;1.93;;
58972;SDS011;44750;52.040;7.472;2024-03-23T21:42:52;2.90;;;2.10;;
58972;SDS011;44750;52.040;7.472;2024-03-23T21:47:53;3.78;;;1.27;;
58972;SDS011;44750;52.040;7.472;2024-03-23T21:52:53;1.77;;;1.30;;
